createdAt,value
2022-10-13T00:00:14.221Z,7.40
2022-10-13T00:02:40.802Z,7.40
2022-10-13T00:05:07.534Z,7.40
2022-10-13T00:07:34.181Z,7.40
2022-10-13T00:10:00.758Z,7.40
2022-10-13T00:12:27.715Z,7.40
2022-10-13T00:14:54.319Z,7.30
2022-10-13T00:17:20.883Z,7.30
2022-10-13T00:19:47.471Z,7.30
2022-10-13T00:22:14.047Z,7.30
2022-10-13T00:24:40.700Z,7.30
2022-10-13T00:27:07.310Z,7.20
2022-10-13T00:29:33.962Z,7.20
2022-10-13T00:32:00.775Z,7.20
2022-10-13T00:34:27.375Z,7.20
2022-10-13T00:36:53.938Z,7.20
2022-10-13T00:39:20.923Z,7.20
2022-10-13T00:41:47.611Z,7.20
2022-10-13T00:44:33.024Z,7.20
2022-10-13T00:46:59.666Z,7.20
2022-10-13T00:49:26.324Z,7.20
2022-10-13T00:51:52.925Z,7.20
2022-10-13T00:54:22.415Z,7.20
2022-10-13T00:56:50.737Z,7.20
2022-10-13T00:59:22.991Z,7.20
2022-10-13T01:01:52.899Z,7.20
2022-10-13T01:04:22.564Z,7.20
2022-10-13T01:06:49.451Z,7.20
2022-10-13T01:09:16.029Z,7.10
2022-10-13T01:11:46.751Z,7.20
2022-10-13T01:14:16.332Z,7.10
2022-10-13T01:16:55.413Z,7.10
2022-10-13T01:19:28.104Z,7.10
2022-10-13T01:21:54.682Z,7.10
2022-10-13T01:24:30.546Z,7.10
2022-10-13T01:27:22.915Z,7.10
2022-10-13T01:30:01.756Z,7.10
2022-10-13T01:32:31.346Z,7.10
2022-10-13T01:35:33.534Z,7.10
2022-10-13T01:38:00.114Z,7.10
2022-10-13T01:40:53.122Z,7.10
2022-10-13T01:43:22.183Z,7.10
2022-10-13T01:45:58.689Z,7.00
2022-10-13T01:48:26.676Z,7.10
2022-10-13T01:50:54.141Z,7.10
2022-10-13T01:53:21.561Z,7.00
2022-10-13T01:55:49.175Z,7.00
2022-10-13T01:58:15.839Z,7.00
2022-10-13T02:00:45.305Z,7.00
2022-10-13T02:03:11.908Z,7.00
2022-10-13T02:05:38.910Z,6.90
2022-10-13T02:08:20.820Z,6.90
2022-10-13T02:10:58.622Z,6.90
2022-10-13T02:13:27.876Z,7.00
2022-10-13T02:15:56.858Z,6.90
2022-10-13T02:18:26.419Z,6.90
2022-10-13T02:20:53.621Z,6.90
2022-10-13T02:23:20.336Z,6.80
2022-10-13T02:25:47.676Z,6.80
2022-10-13T02:28:15.162Z,6.80
2022-10-13T02:30:42.183Z,6.80
2022-10-13T02:33:09.320Z,6.70
2022-10-13T02:35:35.927Z,6.70
2022-10-13T02:38:02.585Z,6.70
2022-10-13T02:40:29.293Z,6.70
2022-10-13T02:42:56.080Z,6.70
2022-10-13T02:45:22.963Z,6.70
2022-10-13T02:47:49.600Z,6.70
2022-10-13T02:50:16.648Z,6.60
2022-10-13T02:52:43.244Z,6.70
2022-10-13T02:55:09.891Z,6.70
2022-10-13T02:57:36.493Z,6.70
2022-10-13T03:00:05.667Z,6.70
2022-10-13T03:02:32.279Z,6.80
2022-10-13T03:04:58.878Z,6.80
2022-10-13T03:07:25.482Z,6.90
2022-10-13T03:09:52.437Z,6.90
2022-10-13T03:12:19.330Z,6.90
2022-10-13T03:14:46.163Z,7.00
2022-10-13T03:17:13.598Z,7.00
2022-10-13T03:19:40.349Z,7.10
2022-10-13T03:22:06.928Z,7.10
2022-10-13T03:24:33.617Z,7.20
2022-10-13T03:27:00.333Z,7.10
2022-10-13T03:29:26.927Z,7.20
2022-10-13T03:31:53.517Z,7.20
2022-10-13T03:34:20.548Z,7.20
2022-10-13T03:36:47.251Z,7.30
2022-10-13T03:39:13.859Z,7.30
2022-10-13T03:41:40.483Z,7.40
2022-10-13T03:44:07.581Z,7.40
2022-10-13T03:46:34.273Z,7.40
2022-10-13T03:49:00.859Z,7.40
2022-10-13T03:51:27.604Z,7.50
2022-10-13T03:53:54.308Z,7.50
2022-10-13T03:56:22.247Z,7.50
2022-10-13T03:58:53.770Z,7.50
2022-10-13T04:01:24.358Z,7.50
2022-10-13T04:03:52.192Z,7.50
2022-10-13T04:06:19.178Z,7.50
2022-10-13T04:08:46.007Z,7.50
2022-10-13T04:11:13.807Z,7.50
2022-10-13T04:13:40.862Z,7.50
2022-10-13T04:16:09.096Z,7.50
2022-10-13T04:18:35.687Z,7.50
2022-10-13T04:21:02.326Z,7.60
2022-10-13T04:23:28.931Z,7.60
2022-10-13T04:25:56.508Z,7.60
2022-10-13T04:28:23.166Z,7.70
2022-10-13T04:30:50.223Z,7.70
2022-10-13T04:33:16.939Z,7.70
2022-10-13T04:35:43.535Z,7.80
2022-10-13T04:38:10.142Z,7.80
2022-10-13T04:40:36.814Z,7.90
2022-10-13T04:43:03.652Z,7.90
2022-10-13T04:45:30.473Z,7.90
2022-10-13T04:47:57.140Z,7.90
2022-10-13T04:50:23.879Z,8.00
2022-10-13T04:52:50.520Z,8.00
2022-10-13T04:55:17.148Z,8.00
2022-10-13T04:57:43.838Z,8.10
2022-10-13T05:00:10.759Z,8.10
2022-10-13T05:02:37.923Z,8.20
2022-10-13T05:05:05.146Z,8.20
2022-10-13T05:07:31.936Z,8.20
2022-10-13T05:09:58.564Z,8.30
2022-10-13T05:12:25.187Z,8.40
2022-10-13T05:14:51.770Z,8.40
2022-10-13T05:17:18.358Z,8.50
2022-10-13T05:19:45.066Z,8.50
2022-10-13T05:22:11.683Z,8.50
2022-10-13T05:24:38.539Z,8.60
2022-10-13T05:27:12.871Z,8.60
2022-10-13T05:29:39.927Z,8.70
2022-10-13T05:32:07.087Z,8.70
2022-10-13T05:34:33.691Z,8.80
2022-10-13T05:37:00.535Z,8.80
2022-10-13T05:39:27.258Z,8.80
2022-10-13T05:41:54.146Z,8.90
2022-10-13T05:44:20.807Z,8.90
2022-10-13T05:46:47.431Z,8.90
2022-10-13T05:49:14.031Z,9.00
2022-10-13T05:51:42.660Z,9.00
2022-10-13T05:54:18.483Z,9.00
2022-10-13T05:56:48.151Z,9.10
2022-10-13T05:59:17.710Z,9.20
2022-10-13T06:01:44.684Z,9.30
2022-10-13T06:04:16.465Z,9.30
2022-10-13T06:06:43.111Z,9.30
2022-10-13T06:09:10.179Z,9.40
2022-10-13T06:11:36.800Z,9.50
2022-10-13T06:14:03.509Z,9.50
2022-10-13T06:16:30.147Z,9.60
2022-10-13T06:18:56.724Z,9.70
2022-10-13T06:21:23.313Z,9.80
2022-10-13T06:23:49.884Z,9.80
2022-10-13T06:26:16.895Z,9.90
2022-10-13T06:28:47.660Z,10.00
2022-10-13T06:31:16.734Z,10.00
2022-10-13T06:33:43.304Z,10.10
2022-10-13T06:36:10.130Z,10.20
2022-10-13T06:38:36.704Z,10.30
2022-10-13T06:41:04.322Z,10.30
2022-10-13T06:43:35.959Z,10.40
2022-10-13T06:46:06.664Z,10.50
2022-10-13T06:48:33.400Z,10.60
2022-10-13T06:51:04.033Z,10.70
2022-10-13T06:53:30.663Z,10.70
2022-10-13T06:56:01.216Z,10.80
2022-10-13T06:58:28.005Z,10.90
2022-10-13T07:00:54.889Z,10.90
2022-10-13T07:03:21.540Z,11.00
2022-10-13T07:05:48.175Z,11.00
2022-10-13T07:08:15.719Z,11.10
2022-10-13T07:10:42.403Z,11.10
2022-10-13T07:13:09.077Z,11.20
2022-10-13T07:15:39.636Z,11.20
2022-10-13T07:18:06.785Z,11.30
2022-10-13T07:20:33.723Z,11.40
2022-10-13T07:23:00.389Z,11.40
2022-10-13T07:25:27.045Z,11.50
2022-10-13T07:27:53.657Z,11.50
2022-10-13T07:30:20.288Z,11.60
2022-10-13T07:32:47.614Z,11.60
2022-10-13T07:35:14.337Z,11.70
2022-10-13T07:37:40.911Z,11.70
2022-10-13T07:40:08.149Z,11.70
2022-10-13T07:42:34.757Z,11.80
2022-10-13T07:45:01.346Z,11.80
2022-10-13T07:47:28.308Z,11.90
2022-10-13T07:49:55.726Z,12.00
2022-10-13T07:52:22.620Z,12.10
2022-10-13T07:54:50.143Z,12.10
2022-10-13T07:57:16.802Z,12.20
2022-10-13T07:59:43.561Z,12.30
2022-10-13T08:02:10.183Z,12.40
2022-10-13T08:04:36.862Z,12.40
2022-10-13T08:07:04.498Z,12.50
2022-10-13T08:09:31.185Z,12.60
2022-10-13T08:12:00.779Z,12.60
2022-10-13T08:14:29.016Z,12.70
2022-10-13T08:16:56.102Z,12.80
2022-10-13T08:19:23.803Z,12.80
2022-10-13T08:21:58.259Z,12.90
2022-10-13T08:24:25.740Z,13.00
2022-10-13T08:26:52.394Z,13.00
2022-10-13T08:29:23.349Z,13.10
2022-10-13T08:31:51.812Z,13.20
2022-10-13T08:34:18.714Z,13.30
2022-10-13T08:36:45.412Z,13.40
2022-10-13T08:39:12.768Z,13.40
2022-10-13T08:41:40.882Z,13.50
2022-10-13T08:47:21.508Z,13.60
2022-10-13T08:49:48.505Z,13.70
2022-10-13T08:52:21.388Z,13.90
2022-10-13T08:54:48.526Z,14.00
2022-10-13T08:57:15.259Z,14.20
2022-10-13T08:59:41.913Z,14.50
2022-10-13T09:02:16.176Z,14.70
2022-10-13T09:04:46.583Z,14.90
2022-10-13T09:07:15.936Z,15.10
2022-10-13T09:09:42.512Z,15.40
2022-10-13T09:12:10.992Z,15.60
2022-10-13T09:14:38.600Z,15.80
2022-10-13T09:17:20.006Z,15.90
2022-10-13T09:20:05.568Z,15.90
2022-10-13T09:22:37.106Z,16.10
2022-10-13T09:25:06.704Z,16.10
2022-10-13T09:27:44.383Z,16.10
2022-10-13T09:30:29.995Z,16.20
2022-10-13T09:33:07.188Z,16.50
2022-10-13T09:35:35.033Z,16.70
2022-10-13T09:38:21.353Z,17.00
2022-10-13T09:41:04.367Z,17.10
2022-10-13T09:43:32.863Z,17.20
2022-10-13T09:46:00.240Z,17.30
2022-10-13T09:48:29.571Z,17.50
2022-10-13T09:50:56.990Z,17.60
2022-10-13T09:53:46.603Z,17.70
2022-10-13T09:56:23.574Z,17.90
2022-10-13T09:58:53.975Z,17.90
2022-10-13T10:01:23.671Z,18.00
2022-10-13T10:03:50.864Z,17.90
2022-10-13T10:06:19.039Z,17.80
2022-10-13T10:09:04.255Z,17.70
2022-10-13T10:11:37.506Z,17.60
2022-10-13T10:14:15.687Z,17.50
2022-10-13T10:16:52.866Z,17.40
2022-10-13T10:19:26.319Z,17.30
2022-10-13T10:21:52.883Z,17.30
2022-10-13T10:24:19.442Z,17.20
2022-10-13T10:26:51.262Z,17.20
2022-10-13T10:29:27.007Z,17.20
2022-10-13T10:32:12.906Z,17.20
2022-10-13T10:34:42.239Z,17.40
2022-10-13T10:37:22.861Z,17.60
2022-10-13T10:40:10.068Z,17.70
2022-10-13T10:42:36.652Z,17.90
2022-10-13T10:45:04.447Z,18.10
2022-10-13T10:47:36.731Z,18.30
2022-10-13T10:50:05.663Z,18.40
2022-10-13T10:52:50.747Z,18.40
2022-10-13T10:55:20.470Z,18.30
2022-10-13T10:57:59.288Z,18.10
2022-10-13T11:03:01.767Z,18.10
2022-10-13T11:05:47.388Z,18.20
2022-10-13T11:08:26.462Z,18.10
2022-10-13T11:11:11.948Z,18.10
2022-10-13T11:13:57.323Z,18.00
2022-10-13T11:16:27.633Z,18.00
2022-10-13T11:18:59.328Z,18.00
2022-10-13T11:21:26.210Z,18.00
2022-10-13T11:23:52.888Z,18.10
2022-10-13T11:26:25.700Z,18.20
2022-10-13T11:28:52.372Z,18.20
2022-10-13T11:31:47.126Z,18.20
2022-10-13T11:34:27.294Z,18.30
2022-10-13T11:36:58.636Z,18.40
2022-10-13T11:39:28.329Z,18.40
2022-10-13T11:42:02.584Z,18.40
2022-10-13T11:44:45.678Z,18.50
2022-10-13T11:47:21.940Z,18.40
2022-10-13T11:49:55.340Z,18.40
2022-10-13T11:52:30.066Z,18.50
2022-10-13T11:55:06.657Z,18.40
2022-10-13T11:57:33.230Z,18.40
2022-10-13T11:59:59.835Z,18.40
2022-10-13T12:02:27.705Z,18.30
2022-10-13T12:05:01.857Z,18.30
2022-10-13T12:07:32.272Z,18.20
2022-10-13T12:09:59.088Z,18.30
2022-10-13T12:12:26.058Z,18.30
2022-10-13T12:14:57.785Z,18.30
2022-10-13T12:17:27.332Z,18.30
2022-10-13T12:19:58.836Z,18.30
2022-10-13T12:22:25.535Z,18.30
2022-10-13T12:25:02.543Z,18.30
2022-10-13T12:27:32.649Z,18.30
2022-10-13T12:30:02.801Z,18.40
2022-10-13T12:32:31.637Z,18.40
2022-10-13T12:35:17.456Z,18.40
2022-10-13T12:37:44.678Z,18.40
2022-10-13T12:40:15.355Z,18.40
2022-10-13T12:42:42.591Z,18.40
2022-10-13T12:45:20.302Z,18.40
2022-10-13T12:47:48.473Z,18.50
2022-10-13T12:50:30.371Z,18.50
2022-10-13T12:53:03.690Z,18.40
2022-10-13T12:55:31.072Z,18.40
2022-10-13T12:57:57.895Z,18.40
2022-10-13T13:00:26.747Z,18.40
2022-10-13T13:03:00.943Z,18.40
2022-10-13T13:05:31.413Z,18.40
2022-10-13T13:07:58.066Z,18.40
2022-10-13T13:10:24.899Z,18.40
2022-10-13T13:12:52.272Z,18.40
2022-10-13T13:15:24.936Z,18.40
2022-10-13T13:17:58.353Z,18.40
2022-10-13T13:20:30.954Z,18.50
2022-10-13T13:22:58.110Z,18.40
2022-10-13T13:25:25.240Z,18.50
2022-10-13T13:27:52.142Z,18.50
2022-10-13T13:30:19.818Z,18.40
2022-10-13T13:32:46.653Z,18.40
2022-10-13T13:35:13.371Z,18.40
2022-10-13T13:37:47.067Z,18.40
2022-10-13T13:40:18.238Z,18.50
2022-10-13T13:42:44.922Z,18.50
2022-10-13T13:45:15.615Z,18.50
2022-10-13T13:47:42.579Z,18.40
2022-10-13T13:50:25.962Z,18.40
2022-10-13T13:52:52.595Z,18.40
2022-10-13T13:55:19.362Z,18.40
2022-10-13T13:57:46.022Z,18.30
2022-10-13T14:00:13.238Z,18.20
2022-10-13T14:02:39.943Z,18.20
2022-10-13T14:05:07.618Z,18.10
2022-10-13T14:07:34.430Z,18.10
2022-10-13T14:10:02.323Z,18.10
2022-10-13T14:12:30.500Z,18.10
2022-10-13T14:14:58.471Z,18.00
2022-10-13T14:17:25.656Z,18.00
2022-10-13T14:19:52.302Z,17.90
2022-10-13T14:22:18.939Z,17.90
2022-10-13T14:24:45.560Z,17.80
2022-10-13T14:27:12.294Z,17.80
2022-10-13T14:29:38.857Z,17.80
2022-10-13T14:32:05.551Z,17.70
2022-10-13T14:34:33.513Z,17.70
2022-10-13T14:37:00.175Z,17.70
2022-10-13T14:39:26.894Z,17.70
2022-10-13T14:41:53.525Z,17.60
2022-10-13T14:44:20.115Z,17.60
2022-10-13T14:46:46.757Z,17.60
2022-10-13T14:49:13.380Z,17.50
2022-10-13T14:51:40.094Z,17.50
2022-10-13T14:54:07.034Z,17.50
2022-10-13T14:56:34.217Z,17.40
2022-10-13T14:59:01.623Z,17.40
2022-10-13T15:01:28.395Z,17.30
2022-10-13T15:03:55.195Z,17.30
2022-10-13T15:06:23.076Z,17.30
2022-10-13T15:08:50.080Z,17.30
2022-10-13T15:11:17.396Z,17.20
2022-10-13T15:13:44.087Z,17.20
2022-10-13T15:16:18.587Z,17.10
2022-10-13T15:18:45.420Z,17.10
2022-10-13T15:21:12.299Z,17.10
2022-10-13T15:23:39.036Z,17.00
2022-10-13T15:26:06.076Z,17.00
2022-10-13T15:28:36.941Z,16.90
2022-10-13T15:31:04.472Z,16.80
2022-10-13T15:33:31.457Z,16.80
2022-10-13T15:35:58.592Z,16.60
2022-10-13T15:38:25.259Z,16.60
2022-10-13T15:40:51.906Z,16.50
2022-10-13T15:43:18.915Z,16.30
2022-10-13T15:45:53.416Z,16.20
2022-10-13T15:48:20.002Z,16.10
2022-10-13T15:50:46.606Z,16.00
2022-10-13T15:53:13.432Z,15.90
2022-10-13T15:55:40.427Z,15.80
2022-10-13T15:58:11.372Z,15.70
2022-10-13T16:00:40.656Z,15.60
2022-10-13T16:03:07.686Z,15.50
2022-10-13T16:05:34.356Z,15.50
2022-10-13T16:08:01.026Z,15.40
2022-10-13T16:10:27.653Z,15.30
2022-10-13T16:12:54.298Z,15.20
2022-10-13T16:15:20.900Z,15.20
2022-10-13T16:17:47.582Z,15.10
2022-10-13T16:20:14.154Z,15.10
2022-10-13T16:22:40.771Z,15.00
2022-10-13T16:25:07.548Z,14.90
2022-10-13T16:27:34.154Z,14.80
2022-10-13T16:30:00.744Z,14.70
2022-10-13T16:32:27.350Z,14.70
2022-10-13T16:34:53.959Z,14.60
2022-10-13T16:37:20.812Z,14.50
2022-10-13T16:39:51.411Z,14.50
2022-10-13T16:42:18.469Z,14.40
2022-10-13T16:44:45.055Z,14.30
2022-10-13T16:47:14.755Z,14.30
2022-10-13T16:49:44.706Z,14.20
2022-10-13T16:52:11.301Z,14.10
2022-10-13T16:54:37.905Z,14.10
2022-10-13T16:57:04.562Z,14.00
2022-10-13T16:59:31.200Z,13.90
2022-10-13T17:01:59.242Z,13.90
2022-10-13T17:04:25.882Z,13.80
2022-10-13T17:06:52.564Z,13.80
2022-10-13T17:09:19.203Z,13.80
2022-10-13T17:11:46.564Z,13.80
2022-10-13T17:14:13.231Z,13.80
2022-10-13T17:16:39.883Z,13.80
2022-10-13T17:19:07.262Z,13.70
2022-10-13T17:21:33.925Z,13.70
2022-10-13T17:24:00.610Z,13.80
2022-10-13T17:26:27.239Z,13.70
2022-10-13T17:28:54.053Z,13.70
2022-10-13T17:31:22.026Z,13.70
2022-10-13T17:33:48.898Z,13.60
2022-10-13T17:36:15.493Z,13.60
2022-10-13T17:38:42.908Z,13.50
2022-10-13T17:41:10.394Z,13.50
2022-10-13T17:43:37.798Z,13.50
2022-10-13T17:46:34.553Z,13.40
2022-10-13T17:48:55.872Z,13.40
2022-10-13T17:51:22.523Z,13.30
2022-10-13T17:53:50.463Z,13.30
2022-10-13T17:56:18.523Z,13.20
2022-10-13T17:58:45.607Z,13.10
2022-10-13T18:01:14.288Z,13.10
2022-10-13T18:03:44.617Z,13.00
2022-10-13T18:06:11.655Z,12.90
2022-10-13T18:08:38.424Z,12.90
2022-10-13T18:11:08.484Z,12.80
2022-10-13T18:13:35.641Z,12.80
2022-10-13T18:16:03.596Z,12.70
2022-10-13T18:18:30.331Z,12.70
2022-10-13T18:20:57.114Z,12.60
2022-10-13T18:23:23.679Z,12.50
2022-10-13T18:25:50.285Z,12.50
2022-10-13T18:28:16.918Z,12.50
2022-10-13T18:30:43.575Z,12.40
2022-10-13T18:33:10.171Z,12.30
2022-10-13T18:35:36.753Z,12.30
2022-10-13T18:38:03.350Z,12.20
2022-10-13T18:40:30.279Z,12.20
2022-10-13T18:42:56.986Z,12.20
2022-10-13T18:45:24.247Z,12.10
2022-10-13T18:47:51.338Z,12.10
2022-10-13T18:50:17.972Z,12.10
2022-10-13T18:52:44.565Z,12.00
2022-10-13T18:55:11.160Z,12.00
2022-10-13T18:57:38.100Z,11.90
2022-10-13T19:00:06.718Z,11.90
2022-10-13T19:02:33.475Z,11.80
2022-10-13T19:05:00.126Z,11.80
2022-10-13T19:07:26.708Z,11.80
2022-10-13T19:09:53.407Z,11.80
2022-10-13T19:12:20.193Z,11.70
2022-10-13T19:14:46.855Z,11.70
2022-10-13T19:17:13.463Z,11.70
2022-10-13T19:19:40.769Z,11.70
2022-10-13T19:22:07.857Z,11.60
2022-10-13T19:24:34.527Z,11.70
2022-10-13T19:27:01.269Z,11.60
2022-10-13T19:29:27.948Z,11.60
2022-10-13T19:31:54.567Z,11.60
2022-10-13T19:34:21.151Z,11.50
2022-10-13T19:36:48.180Z,11.50
2022-10-13T19:39:22.532Z,11.50
2022-10-13T19:41:49.883Z,11.50
2022-10-13T19:44:16.931Z,11.40
2022-10-13T19:46:44.677Z,11.40
2022-10-13T19:49:12.114Z,11.40
2022-10-13T19:51:41.589Z,11.30
2022-10-13T19:54:08.642Z,11.30
2022-10-13T19:56:35.307Z,11.30
2022-10-13T19:59:04.204Z,11.30
2022-10-13T20:01:31.564Z,11.20
2022-10-13T20:03:58.541Z,11.20
2022-10-13T20:06:25.145Z,11.20
2022-10-13T20:08:51.768Z,11.20
2022-10-13T20:11:23.408Z,11.20
2022-10-13T20:13:51.342Z,11.10
2022-10-13T20:16:19.023Z,11.20
2022-10-13T20:18:45.715Z,11.10
2022-10-13T20:21:13.239Z,11.10
2022-10-13T20:23:40.934Z,11.20
2022-10-13T20:26:08.984Z,11.20
2022-10-13T20:28:40.518Z,11.20
2022-10-13T20:31:10.351Z,11.20
2022-10-13T20:33:36.980Z,11.30
2022-10-13T20:36:05.270Z,11.20
2022-10-13T20:38:35.311Z,11.30
2022-10-13T20:41:04.837Z,11.20
2022-10-13T20:43:31.597Z,11.30
2022-10-13T20:45:59.176Z,11.30
2022-10-13T20:48:25.784Z,11.30
2022-10-13T20:50:52.355Z,11.20
2022-10-13T20:53:18.938Z,11.30
2022-10-13T20:55:54.370Z,11.30
2022-10-13T20:58:23.002Z,11.30
2022-10-13T21:00:49.618Z,11.30
2022-10-13T21:03:18.393Z,11.30
2022-10-13T21:05:45.296Z,11.30
2022-10-13T21:08:11.879Z,11.30
2022-10-13T21:10:38.493Z,11.30
2022-10-13T21:13:05.176Z,11.40
2022-10-13T21:15:31.979Z,11.40
2022-10-13T21:17:58.568Z,11.40
2022-10-13T21:20:25.211Z,11.40
2022-10-13T21:22:51.820Z,11.40
2022-10-13T21:25:18.448Z,11.40
2022-10-13T21:27:45.048Z,11.40
2022-10-13T21:30:11.799Z,11.40
2022-10-13T21:32:38.404Z,11.50
2022-10-13T21:35:05.254Z,11.50
2022-10-13T21:37:35.053Z,11.50
2022-10-13T21:40:01.659Z,11.50
2022-10-13T21:42:34.735Z,11.50
2022-10-13T21:45:01.541Z,11.60
2022-10-13T21:47:32.045Z,11.60
2022-10-13T21:49:58.935Z,11.60
2022-10-13T21:52:26.141Z,11.60
2022-10-13T21:54:53.223Z,11.70
2022-10-13T21:57:20.409Z,11.70
2022-10-13T21:59:47.695Z,11.70
2022-10-13T22:02:14.319Z,11.80
2022-10-13T22:04:40.974Z,11.80
2022-10-13T22:07:07.584Z,11.90
2022-10-13T22:09:34.333Z,11.90
2022-10-13T22:12:01.055Z,12.00
2022-10-13T22:14:27.709Z,12.00
2022-10-13T22:16:54.307Z,12.10
2022-10-13T22:19:24.254Z,12.20
2022-10-13T22:21:51.048Z,12.20
2022-10-13T22:24:18.861Z,12.30
2022-10-13T22:26:47.259Z,12.40
2022-10-13T22:29:15.357Z,12.40
2022-10-13T22:31:41.999Z,12.30
2022-10-13T22:34:09.020Z,12.40
2022-10-13T22:36:35.648Z,12.30
2022-10-13T22:39:03.875Z,12.40
2022-10-13T22:41:30.838Z,12.30
2022-10-13T22:43:58.255Z,12.30
2022-10-13T22:46:26.386Z,12.30
2022-10-13T22:48:53.320Z,12.30
2022-10-13T22:51:20.978Z,12.30
2022-10-13T22:53:47.787Z,12.30
2022-10-13T22:56:15.966Z,12.30
2022-10-13T22:58:42.635Z,12.20
2022-10-13T23:01:10.480Z,12.20
2022-10-13T23:03:37.654Z,12.20
2022-10-13T23:06:05.178Z,12.20
2022-10-13T23:08:31.758Z,12.20
2022-10-13T23:10:58.760Z,12.20
2022-10-13T23:13:25.406Z,12.20
2022-10-13T23:15:52.104Z,12.20
2022-10-13T23:18:18.743Z,12.20
2022-10-13T23:20:45.343Z,12.20
2022-10-13T23:23:12.032Z,12.20
2022-10-13T23:25:38.702Z,12.20
2022-10-13T23:28:05.295Z,12.10
2022-10-13T23:30:32.128Z,12.10
2022-10-13T23:32:58.788Z,12.10
2022-10-13T23:35:25.537Z,12.10
2022-10-13T23:37:52.844Z,12.10
2022-10-13T23:40:19.967Z,12.10
2022-10-13T23:42:46.639Z,12.10
2022-10-13T23:45:13.286Z,12.10
2022-10-13T23:47:39.983Z,12.10
2022-10-13T23:50:06.684Z,12.10
2022-10-13T23:52:33.296Z,12.10
2022-10-13T23:55:00.296Z,12.10
2022-10-13T23:57:28.781Z,12.10
2022-10-13T23:59:55.366Z,12.10
